createdAt,value
2023-09-09T00:00:13.750Z,17.10
2023-09-09T00:02:16.727Z,17.00
2023-09-09T00:04:20.358Z,17.00
2023-09-09T00:06:25.613Z,17.00
2023-09-09T00:08:32.778Z,17.00
2023-09-09T00:10:42.259Z,16.90
2023-09-09T00:12:53.566Z,17.00
2023-09-09T00:15:08.497Z,16.90
2023-09-09T00:17:12.238Z,16.90
2023-09-09T00:19:15.322Z,16.90
2023-09-09T00:21:30.744Z,16.90
2023-09-09T00:23:44.042Z,16.90
2023-09-09T00:25:48.187Z,16.90
2023-09-09T00:27:52.047Z,16.80
2023-09-09T00:29:54.681Z,16.80
2023-09-09T00:31:59.853Z,16.80
2023-09-09T00:34:02.897Z,16.80
2023-09-09T00:36:09.044Z,16.70
2023-09-09T00:38:32.953Z,16.70
2023-09-09T00:41:20.301Z,16.70
2023-09-09T00:43:28.800Z,16.70
2023-09-09T00:45:48.556Z,16.60
2023-09-09T00:48:01.167Z,16.60
2023-09-09T00:50:25.131Z,16.60
2023-09-09T00:52:40.085Z,16.60
2023-09-09T00:54:55.752Z,16.50
2023-09-09T00:57:12.274Z,16.50
2023-09-09T00:59:22.831Z,16.40
2023-09-09T01:01:28.230Z,16.30
2023-09-09T01:03:33.295Z,16.30
2023-09-09T01:05:38.963Z,16.30
2023-09-09T01:07:48.421Z,16.30
2023-09-09T01:09:56.409Z,16.20
2023-09-09T01:12:14.096Z,16.20
2023-09-09T01:14:21.763Z,16.20
2023-09-09T01:16:32.879Z,16.10
2023-09-09T01:18:36.320Z,16.10
2023-09-09T01:20:49.794Z,16.00
2023-09-09T01:23:00.905Z,16.00
2023-09-09T01:25:13.962Z,16.00
2023-09-09T01:27:52.791Z,15.90
2023-09-09T01:30:00.759Z,15.90
2023-09-09T01:32:04.391Z,15.80
2023-09-09T01:34:12.618Z,15.80
2023-09-09T01:36:28.160Z,15.80
2023-09-09T01:38:40.807Z,15.70
2023-09-09T01:40:53.053Z,15.70
2023-09-09T01:43:02.716Z,15.70
2023-09-09T01:45:12.087Z,15.70
2023-09-09T01:47:14.863Z,15.60
2023-09-09T01:49:29.671Z,15.60
2023-09-09T01:51:37.981Z,15.60
2023-09-09T01:53:44.714Z,15.50
2023-09-09T01:55:53.608Z,15.50
2023-09-09T01:58:01.481Z,15.50
2023-09-09T02:00:13.701Z,15.40
2023-09-09T02:02:23.704Z,15.40
2023-09-09T02:04:28.445Z,15.30
2023-09-09T02:06:33.722Z,15.30
2023-09-09T02:08:42.622Z,15.30
2023-09-09T02:10:54.749Z,15.30
2023-09-09T02:13:02.657Z,15.30
2023-09-09T02:15:08.652Z,15.30
2023-09-09T02:17:19.239Z,15.20
2023-09-09T02:19:25.229Z,15.20
2023-09-09T02:21:33.144Z,15.20
2023-09-09T02:23:44.205Z,15.10
2023-09-09T02:25:51.341Z,15.20
2023-09-09T02:28:07.157Z,15.10
2023-09-09T02:30:12.639Z,15.10
2023-09-09T02:32:15.685Z,15.10
2023-09-09T02:34:25.589Z,15.00
2023-09-09T02:36:35.998Z,15.10
2023-09-09T02:38:44.216Z,15.10
2023-09-09T02:40:50.713Z,15.10
2023-09-09T02:43:03.908Z,15.00
2023-09-09T02:45:08.506Z,15.00
2023-09-09T02:47:13.840Z,15.00
2023-09-09T02:49:17.312Z,15.00
2023-09-09T02:51:24.050Z,15.00
2023-09-09T02:53:31.437Z,15.00
2023-09-09T02:55:36.368Z,15.00
2023-09-09T02:57:50.925Z,15.00
2023-09-09T03:00:00.139Z,15.00
2023-09-09T03:02:09.554Z,15.00
2023-09-09T03:04:14.024Z,14.90
2023-09-09T03:06:17.316Z,14.90
2023-09-09T03:08:21.164Z,14.90
2023-09-09T03:10:28.145Z,14.90
2023-09-09T03:12:32.370Z,14.90
2023-09-09T03:14:39.609Z,14.80
2023-09-09T03:16:43.120Z,14.80
2023-09-09T03:18:46.106Z,14.70
2023-09-09T03:20:49.332Z,14.70
2023-09-09T03:22:56.641Z,14.70
2023-09-09T03:24:59.924Z,14.60
2023-09-09T03:27:06.632Z,14.60
2023-09-09T03:29:08.559Z,14.50
2023-09-09T03:31:14.725Z,14.50
2023-09-09T03:33:25.754Z,14.50
2023-09-09T03:35:29.706Z,14.50
2023-09-09T03:37:35.401Z,14.40
2023-09-09T03:39:45.738Z,14.40
2023-09-09T03:41:51.495Z,14.40
2023-09-09T03:43:56.442Z,14.40
2023-09-09T03:46:01.293Z,14.40
2023-09-09T03:48:07.427Z,14.40
2023-09-09T03:50:23.081Z,14.40
2023-09-09T03:52:34.468Z,14.40
2023-09-09T03:54:42.696Z,14.40
2023-09-09T03:56:53.865Z,14.40
2023-09-09T03:58:57.219Z,14.40
2023-09-09T04:01:07.811Z,14.40
2023-09-09T04:03:09.986Z,14.40
2023-09-09T04:05:17.700Z,14.40
2023-09-09T04:07:23.692Z,14.40
2023-09-09T04:09:44.643Z,14.30
2023-09-09T04:11:53.345Z,14.30
2023-09-09T04:14:00.721Z,14.30
2023-09-09T04:16:21.174Z,14.30
2023-09-09T04:18:38.221Z,14.30
2023-09-09T04:20:49.524Z,14.20
2023-09-09T04:22:56.821Z,14.20
2023-09-09T04:25:08.706Z,14.20
2023-09-09T04:27:11.725Z,14.20
2023-09-09T04:29:14.783Z,14.20
2023-09-09T04:31:17.691Z,14.20
2023-09-09T04:33:21.359Z,14.10
2023-09-09T04:35:30.129Z,14.10
2023-09-09T04:37:37.946Z,14.10
2023-09-09T04:39:47.012Z,14.20
2023-09-09T04:41:52.402Z,14.20
2023-09-09T04:43:59.726Z,14.20
2023-09-09T04:46:09.426Z,14.20
2023-09-09T04:48:12.520Z,14.30
2023-09-09T04:50:22.066Z,14.30
2023-09-09T04:52:25.374Z,14.30
2023-09-09T04:54:30.074Z,14.30
2023-09-09T04:56:35.106Z,14.30
2023-09-09T04:58:38.180Z,14.30
2023-09-09T05:00:42.760Z,14.30
2023-09-09T05:02:48.015Z,14.20
2023-09-09T05:04:51.618Z,14.20
2023-09-09T05:06:57.636Z,14.20
2023-09-09T05:09:05.281Z,14.20
2023-09-09T05:11:15.673Z,14.20
2023-09-09T05:13:21.455Z,14.20
2023-09-09T05:15:24.913Z,14.20
2023-09-09T05:17:28.270Z,14.20
2023-09-09T05:19:31.617Z,14.20
2023-09-09T05:21:38.816Z,14.20
2023-09-09T05:23:44.642Z,14.20
2023-09-09T05:25:54.011Z,14.20
2023-09-09T05:27:58.455Z,14.20
2023-09-09T05:30:01.225Z,14.30
2023-09-09T05:32:04.288Z,14.30
2023-09-09T05:34:07.295Z,14.30
2023-09-09T05:36:10.478Z,14.30
2023-09-09T05:38:15.229Z,14.40
2023-09-09T05:40:18.034Z,14.40
2023-09-09T05:42:20.788Z,14.40
2023-09-09T05:44:25.155Z,14.40
2023-09-09T05:46:28.031Z,14.50
2023-09-09T05:48:31.343Z,14.50
2023-09-09T05:50:34.106Z,14.60
2023-09-09T05:52:37.078Z,14.60
2023-09-09T05:54:40.952Z,14.70
2023-09-09T05:56:44.022Z,14.70
2023-09-09T05:58:46.819Z,14.80
2023-09-09T06:00:50.968Z,14.90
2023-09-09T06:02:53.836Z,14.90
2023-09-09T06:04:56.793Z,15.00
2023-09-09T06:06:59.830Z,15.10
2023-09-09T06:09:02.799Z,15.20
2023-09-09T06:11:05.631Z,15.30
2023-09-09T06:13:08.438Z,15.50
2023-09-09T06:15:11.982Z,15.60
2023-09-09T06:17:16.152Z,15.70
2023-09-09T06:19:18.358Z,15.80
2023-09-09T06:21:22.366Z,16.00
2023-09-09T06:23:24.276Z,16.10
2023-09-09T06:25:27.547Z,16.30
2023-09-09T06:27:30.342Z,16.50
2023-09-09T06:29:33.270Z,16.60
2023-09-09T06:31:36.178Z,16.70
2023-09-09T06:33:43.906Z,16.90
2023-09-09T06:35:49.793Z,17.10
2023-09-09T06:37:52.656Z,17.20
2023-09-09T06:39:55.564Z,17.30
2023-09-09T06:41:58.457Z,17.40
2023-09-09T06:44:01.399Z,17.40
2023-09-09T06:46:04.211Z,17.50
2023-09-09T06:48:06.223Z,17.60
2023-09-09T06:50:11.242Z,17.70
2023-09-09T06:52:14.090Z,17.80
2023-09-09T06:54:16.918Z,17.90
2023-09-09T06:56:19.694Z,18.00
2023-09-09T06:58:23.130Z,18.00
2023-09-09T07:00:26.006Z,18.10
2023-09-09T07:02:28.824Z,18.10
2023-09-09T07:04:32.381Z,18.20
2023-09-09T07:06:36.698Z,18.20
2023-09-09T07:08:41.364Z,18.40
2023-09-09T07:10:51.731Z,18.40
2023-09-09T07:12:56.240Z,18.60
2023-09-09T07:14:58.081Z,18.80
2023-09-09T07:17:00.800Z,18.80
2023-09-09T07:19:03.541Z,18.90
2023-09-09T07:21:07.119Z,19.10
2023-09-09T07:23:11.594Z,19.10
2023-09-09T07:25:14.528Z,19.20
2023-09-09T07:27:17.370Z,19.20
2023-09-09T07:29:20.342Z,19.30
2023-09-09T07:31:23.232Z,19.40
2023-09-09T07:33:26.506Z,19.40
2023-09-09T07:35:29.323Z,19.50
2023-09-09T07:37:32.190Z,19.50
2023-09-09T07:39:46.128Z,19.60
2023-09-09T07:41:49.024Z,19.70
2023-09-09T07:43:51.803Z,19.80
2023-09-09T07:46:02.100Z,19.90
2023-09-09T07:48:12.937Z,20.10
2023-09-09T07:50:35.295Z,20.20
2023-09-09T07:57:55.257Z,20.70
2023-09-09T08:05:05.236Z,20.90
2023-09-09T08:07:29.218Z,21.10
2023-09-09T08:09:46.049Z,21.20
2023-09-09T08:12:29.212Z,21.20
2023-09-09T08:14:52.233Z,21.30
2023-09-09T08:17:24.743Z,21.40
2023-09-09T08:21:06.357Z,21.50
2023-09-09T08:26:23.188Z,21.90
2023-09-09T08:28:28.120Z,22.00
2023-09-09T08:30:36.444Z,22.10
2023-09-09T08:32:39.815Z,22.30
2023-09-09T08:34:44.507Z,22.40
2023-09-09T08:36:50.773Z,22.50
2023-09-09T08:38:58.565Z,22.60
2023-09-09T08:41:09.413Z,22.70
2023-09-09T08:43:21.276Z,22.80
2023-09-09T08:45:37.008Z,22.90
2023-09-09T08:47:49.757Z,23.00
2023-09-09T08:50:04.125Z,23.10
2023-09-09T08:52:18.780Z,23.20
2023-09-09T08:54:21.846Z,23.30
2023-09-09T08:56:30.410Z,23.40
2023-09-09T08:58:34.337Z,23.50
2023-09-09T09:00:44.253Z,23.60
2023-09-09T09:02:55.374Z,23.70
2023-09-09T09:05:01.927Z,23.80
2023-09-09T09:07:08.385Z,23.90
2023-09-09T09:09:11.951Z,24.00
2023-09-09T09:11:15.876Z,24.10
2023-09-09T09:13:21.946Z,24.20
2023-09-09T09:15:26.638Z,24.30
2023-09-09T09:17:34.428Z,24.40
2023-09-09T09:19:37.729Z,24.50
2023-09-09T09:21:41.090Z,24.60
2023-09-09T09:23:45.080Z,24.70
2023-09-09T09:25:49.179Z,24.80
2023-09-09T09:27:52.180Z,24.90
2023-09-09T09:29:55.136Z,24.90
2023-09-09T09:31:58.083Z,25.00
2023-09-09T09:34:05.491Z,25.10
2023-09-09T09:36:10.822Z,25.30
2023-09-09T09:38:19.089Z,25.30
2023-09-09T09:40:22.333Z,25.40
2023-09-09T09:42:36.842Z,25.40
2023-09-09T09:44:40.127Z,25.50
2023-09-09T09:46:43.129Z,25.50
2023-09-09T09:48:46.771Z,25.50
2023-09-09T09:50:54.230Z,25.60
2023-09-09T09:53:02.990Z,25.70
2023-09-09T09:55:07.169Z,25.80
2023-09-09T09:57:10.397Z,25.80
2023-09-09T09:59:13.369Z,25.90
2023-09-09T10:01:17.405Z,26.00
2023-09-09T10:03:24.890Z,26.00
2023-09-09T10:05:29.793Z,26.10
2023-09-09T10:07:42.422Z,26.20
2023-09-09T10:09:52.682Z,26.30
2023-09-09T10:12:06.923Z,26.30
2023-09-09T10:14:15.544Z,26.30
2023-09-09T10:16:20.276Z,26.40
2023-09-09T10:18:24.450Z,26.50
2023-09-09T10:20:28.407Z,26.50
2023-09-09T10:22:32.803Z,26.60
2023-09-09T10:24:38.096Z,26.70
2023-09-09T10:26:42.064Z,26.80
2023-09-09T10:28:46.326Z,26.80
2023-09-09T10:30:50.707Z,26.80
2023-09-09T10:32:56.862Z,26.90
2023-09-09T10:35:00.671Z,26.90
2023-09-09T10:37:05.681Z,27.00
2023-09-09T10:39:09.924Z,27.10
2023-09-09T10:41:17.148Z,27.10
2023-09-09T10:43:20.224Z,27.10
2023-09-09T10:45:28.836Z,27.10
2023-09-09T10:47:31.907Z,27.20
2023-09-09T10:49:35.120Z,27.30
2023-09-09T10:51:51.581Z,27.30
2023-09-09T10:54:08.520Z,27.40
2023-09-09T10:56:27.722Z,27.40
2023-09-09T10:58:35.630Z,27.50
2023-09-09T11:00:39.978Z,27.60
2023-09-09T11:02:48.041Z,27.70
2023-09-09T11:05:00.545Z,27.80
2023-09-09T11:07:07.680Z,27.70
2023-09-09T11:09:12.638Z,27.70
2023-09-09T11:11:17.283Z,27.80
2023-09-09T11:13:21.744Z,27.80
2023-09-09T11:15:27.148Z,27.90
2023-09-09T11:17:30.755Z,28.00
2023-09-09T11:19:36.554Z,28.20
2023-09-09T11:21:41.869Z,28.30
2023-09-09T11:23:47.269Z,28.40
2023-09-09T11:25:54.838Z,28.40
2023-09-09T11:27:59.188Z,28.50
2023-09-09T11:30:03.715Z,28.60
2023-09-09T11:32:10.547Z,28.70
2023-09-09T11:34:14.271Z,28.70
2023-09-09T11:36:18.931Z,28.70
2023-09-09T11:38:23.503Z,28.80
2023-09-09T11:40:29.150Z,28.80
2023-09-09T11:42:32.192Z,28.80
2023-09-09T11:44:40.605Z,28.70
2023-09-09T11:46:46.904Z,28.80
2023-09-09T11:48:53.143Z,28.90
2023-09-09T11:50:57.048Z,29.00
2023-09-09T11:53:01.750Z,29.10
2023-09-09T11:55:04.918Z,29.20
2023-09-09T11:57:10.070Z,29.30
2023-09-09T11:59:13.619Z,29.30
2023-09-09T12:01:16.128Z,29.30
2023-09-09T12:03:24.643Z,29.30
2023-09-09T12:05:30.857Z,29.20
2023-09-09T12:07:35.866Z,29.20
2023-09-09T12:09:39.040Z,29.10
2023-09-09T12:11:43.992Z,29.20
2023-09-09T12:13:48.120Z,29.20
2023-09-09T12:16:03.866Z,29.20
2023-09-09T12:18:13.626Z,29.20
2023-09-09T12:20:17.902Z,29.20
2023-09-09T12:22:31.838Z,29.30
2023-09-09T12:24:42.740Z,29.20
2023-09-09T12:26:53.415Z,29.30
2023-09-09T12:29:07.635Z,29.30
2023-09-09T12:31:12.949Z,29.30
2023-09-09T12:33:17.494Z,29.30
2023-09-09T12:35:22.772Z,29.20
2023-09-09T12:37:25.661Z,29.30
2023-09-09T12:39:30.363Z,29.30
2023-09-09T12:41:33.250Z,29.30
2023-09-09T12:43:35.887Z,29.30
2023-09-09T12:45:49.765Z,29.40
2023-09-09T12:47:53.157Z,29.40
2023-09-09T12:49:56.107Z,29.40
2023-09-09T12:52:00.596Z,29.50
2023-09-09T12:54:03.524Z,29.40
2023-09-09T12:56:07.839Z,29.40
2023-09-09T12:58:10.661Z,29.40
2023-09-09T13:00:17.111Z,29.40
2023-09-09T13:02:19.995Z,29.40
2023-09-09T13:04:22.875Z,29.40
2023-09-09T13:06:25.728Z,29.40
2023-09-09T13:08:28.898Z,29.40
2023-09-09T13:10:31.715Z,29.40
2023-09-09T13:12:34.632Z,29.40
2023-09-09T13:14:36.464Z,29.40
2023-09-09T13:16:41.945Z,29.50
2023-09-09T13:18:45.406Z,29.50
2023-09-09T13:20:48.550Z,29.50
2023-09-09T13:22:51.435Z,29.50
2023-09-09T13:24:55.901Z,29.50
2023-09-09T13:26:58.856Z,29.50
2023-09-09T13:29:01.787Z,29.50
2023-09-09T13:31:04.861Z,29.50
2023-09-09T13:33:07.745Z,29.50
2023-09-09T13:35:10.708Z,29.50
2023-09-09T13:37:13.814Z,29.40
2023-09-09T13:39:16.793Z,29.40
2023-09-09T13:41:21.184Z,29.40
2023-09-09T13:43:24.113Z,29.40
2023-09-09T13:45:27.313Z,29.30
2023-09-09T13:47:30.153Z,29.30
2023-09-09T13:49:32.188Z,29.30
2023-09-09T13:51:35.021Z,29.20
2023-09-09T13:53:37.915Z,29.20
2023-09-09T13:55:40.743Z,29.20
2023-09-09T13:57:46.592Z,29.20
2023-09-09T13:59:49.423Z,29.20
2023-09-09T14:01:52.345Z,29.20
2023-09-09T14:03:55.653Z,29.20
2023-09-09T14:05:59.004Z,29.20
2023-09-09T14:08:02.013Z,29.20
2023-09-09T14:10:05.501Z,29.20
2023-09-09T14:12:09.136Z,29.30
2023-09-09T14:14:14.438Z,29.30
2023-09-09T14:16:17.362Z,29.30
2023-09-09T14:18:20.340Z,29.40
2023-09-09T14:20:23.192Z,29.40
2023-09-09T14:22:26.006Z,29.40
2023-09-09T14:24:28.792Z,29.40
2023-09-09T14:26:31.599Z,29.40
2023-09-09T14:28:34.486Z,29.40
2023-09-09T14:30:38.816Z,29.40
2023-09-09T14:32:41.772Z,29.40
2023-09-09T14:34:44.732Z,29.40
2023-09-09T14:36:47.512Z,29.50
2023-09-09T14:38:50.704Z,29.50
2023-09-09T14:40:53.984Z,29.60
2023-09-09T14:42:56.776Z,29.70
2023-09-09T14:44:59.639Z,29.70
2023-09-09T14:47:03.950Z,29.70
2023-09-09T14:49:06.894Z,29.70
2023-09-09T14:51:09.825Z,29.80
2023-09-09T14:53:13.141Z,29.80
2023-09-09T14:55:16.282Z,29.80
2023-09-09T14:57:19.134Z,29.80
2023-09-09T14:59:21.947Z,29.90
2023-09-09T15:01:24.907Z,29.90
2023-09-09T15:03:28.096Z,30.10
2023-09-09T15:05:30.895Z,30.20
2023-09-09T15:07:33.663Z,30.30
2023-09-09T15:09:36.474Z,30.50
2023-09-09T15:11:39.217Z,30.60
2023-09-09T15:13:41.935Z,30.60
2023-09-09T15:15:45.495Z,30.80
2023-09-09T15:17:50.014Z,31.00
2023-09-09T15:19:55.826Z,31.20
2023-09-09T15:21:58.918Z,31.40
2023-09-09T15:24:01.690Z,31.70
2023-09-09T15:26:04.699Z,31.90
2023-09-09T15:28:06.961Z,32.00
2023-09-09T15:30:11.895Z,32.00
2023-09-09T15:32:15.007Z,31.80
2023-09-09T15:34:17.037Z,31.70
2023-09-09T15:36:21.288Z,31.40
2023-09-09T15:38:26.016Z,31.20
2023-09-09T15:40:28.847Z,30.90
2023-09-09T15:42:31.715Z,30.70
2023-09-09T15:44:34.706Z,30.50
2023-09-09T15:46:37.678Z,30.40
2023-09-09T15:48:40.825Z,30.50
2023-09-09T15:50:43.836Z,30.60
2023-09-09T15:52:48.128Z,30.70
2023-09-09T15:54:50.952Z,30.90
2023-09-09T15:56:53.745Z,31.20
2023-09-09T15:58:57.034Z,31.40
2023-09-09T16:01:01.768Z,31.70
2023-09-09T16:03:05.286Z,32.10
2023-09-09T16:05:08.492Z,32.50
2023-09-09T16:07:11.501Z,32.90
2023-09-09T16:09:16.880Z,33.20
2023-09-09T16:11:19.686Z,33.40
2023-09-09T16:13:22.673Z,33.60
2023-09-09T16:15:25.647Z,33.60
2023-09-09T16:17:29.983Z,33.50
2023-09-09T16:19:32.878Z,33.40
2023-09-09T16:21:39.994Z,33.30
2023-09-09T16:23:42.712Z,33.40
2023-09-09T16:25:47.635Z,33.50
2023-09-09T16:27:50.486Z,33.50
2023-09-09T16:29:53.273Z,33.50
2023-09-09T16:31:56.585Z,33.60
2023-09-09T16:34:01.592Z,33.50
2023-09-09T16:36:05.740Z,33.40
2023-09-09T16:38:09.658Z,33.50
2023-09-09T16:40:13.313Z,33.60
2023-09-09T16:42:17.560Z,33.60
2023-09-09T16:44:20.333Z,33.60
2023-09-09T16:46:23.294Z,33.60
2023-09-09T16:48:26.744Z,33.40
2023-09-09T16:50:31.412Z,33.40
2023-09-09T16:52:34.570Z,33.40
2023-09-09T16:54:37.459Z,33.50
2023-09-09T16:56:46.462Z,33.50
2023-09-09T16:58:50.808Z,33.50
2023-09-09T17:00:53.786Z,33.40
2023-09-09T17:02:56.719Z,33.40
2023-09-09T17:04:59.743Z,33.40
2023-09-09T17:07:03.249Z,33.30
2023-09-09T17:09:06.080Z,33.30
2023-09-09T17:11:07.890Z,33.30
2023-09-09T17:13:10.665Z,33.20
2023-09-09T17:15:15.056Z,33.00
2023-09-09T17:17:17.876Z,32.50
2023-09-09T17:19:19.742Z,32.00
2023-09-09T17:21:22.805Z,31.40
2023-09-09T17:23:25.709Z,30.60
2023-09-09T17:25:28.909Z,29.90
2023-09-09T17:27:31.994Z,29.30
2023-09-09T17:29:33.807Z,28.70
2023-09-09T17:31:38.127Z,28.10
2023-09-09T17:33:41.254Z,27.70
2023-09-09T17:35:44.355Z,27.30
2023-09-09T17:37:47.104Z,26.90
2023-09-09T17:39:49.863Z,26.60
2023-09-09T17:41:52.833Z,26.30
2023-09-09T17:43:57.390Z,26.10
2023-09-09T17:46:00.665Z,25.90
2023-09-09T17:48:05.627Z,25.70
2023-09-09T17:50:09.095Z,25.50
2023-09-09T17:52:11.985Z,25.40
2023-09-09T17:54:14.763Z,25.20
2023-09-09T17:56:17.557Z,25.10
2023-09-09T17:58:20.356Z,24.90
2023-09-09T18:00:23.473Z,24.70
2023-09-09T18:02:26.315Z,24.60
2023-09-09T18:04:30.583Z,24.50
2023-09-09T18:06:33.390Z,24.30
2023-09-09T18:08:36.529Z,24.20
2023-09-09T18:10:41.623Z,24.10
2023-09-09T18:12:43.471Z,24.00
2023-09-09T18:14:47.002Z,23.90
2023-09-09T18:16:49.905Z,23.70
2023-09-09T18:18:52.690Z,23.70
2023-09-09T18:20:56.760Z,23.60
2023-09-09T18:22:58.563Z,23.50
2023-09-09T18:25:02.049Z,23.40
2023-09-09T18:27:05.395Z,23.30
2023-09-09T18:29:08.185Z,23.20
2023-09-09T18:31:11.216Z,23.20
2023-09-09T18:33:14.870Z,23.10
2023-09-09T18:35:17.724Z,23.10
2023-09-09T18:37:22.631Z,23.00
2023-09-09T18:39:25.728Z,22.90
2023-09-09T18:41:28.555Z,22.90
2023-09-09T18:43:31.500Z,22.90
2023-09-09T18:45:35.261Z,22.80
2023-09-09T18:47:38.128Z,22.80
2023-09-09T18:49:41.058Z,22.70
2023-09-09T18:51:43.021Z,22.70
2023-09-09T18:53:47.206Z,22.60
2023-09-09T18:55:50.055Z,22.50
2023-09-09T18:57:53.315Z,22.40
2023-09-09T18:59:56.113Z,22.40
2023-09-09T19:01:58.938Z,22.30
2023-09-09T19:04:01.864Z,22.20
2023-09-09T19:06:05.049Z,22.20
2023-09-09T19:08:07.919Z,22.10
2023-09-09T19:10:12.851Z,22.10
2023-09-09T19:12:15.659Z,22.00
2023-09-09T19:14:18.442Z,22.00
2023-09-09T19:16:21.444Z,22.00
2023-09-09T19:18:24.397Z,22.00
2023-09-09T19:20:26.480Z,22.00
2023-09-09T19:22:29.283Z,22.00
2023-09-09T19:24:32.077Z,22.00
2023-09-09T19:26:38.100Z,21.90
2023-09-09T19:28:41.183Z,21.80
2023-09-09T19:30:44.284Z,21.80
2023-09-09T19:32:47.168Z,21.70
2023-09-09T19:34:52.809Z,21.70
2023-09-09T19:36:56.088Z,21.70
2023-09-09T19:38:58.880Z,21.70
2023-09-09T19:41:01.680Z,21.60
2023-09-09T19:43:05.942Z,21.60
2023-09-09T19:45:13.251Z,21.60
2023-09-09T19:47:16.609Z,21.50
2023-09-09T19:49:19.370Z,21.50
2023-09-09T19:51:24.229Z,21.50
2023-09-09T19:53:27.462Z,21.40
2023-09-09T19:55:30.255Z,21.40
2023-09-09T19:57:33.037Z,21.40
2023-09-09T19:59:37.665Z,21.30
2023-09-09T20:01:40.634Z,21.20
2023-09-09T20:03:44.098Z,21.20
2023-09-09T20:05:50.185Z,21.10
2023-09-09T20:07:56.244Z,21.10
2023-09-09T20:10:09.157Z,21.00
2023-09-09T20:12:14.886Z,21.00
2023-09-09T20:14:17.657Z,20.90
2023-09-09T20:16:21.884Z,20.80
2023-09-09T20:18:25.102Z,20.80
2023-09-09T20:20:27.915Z,20.80
2023-09-09T20:22:30.754Z,20.70
2023-09-09T20:24:33.525Z,20.70
2023-09-09T20:26:36.606Z,20.60
2023-09-09T20:28:40.870Z,20.60
2023-09-09T20:30:44.186Z,20.50
2023-09-09T20:32:48.444Z,20.40
2023-09-09T20:34:52.763Z,20.40
2023-09-09T20:36:57.021Z,20.30
2023-09-09T20:39:00.204Z,20.30
2023-09-09T20:41:03.151Z,20.30
2023-09-09T20:43:06.203Z,20.20
2023-09-09T20:45:10.584Z,20.10
2023-09-09T20:47:15.554Z,20.10
2023-09-09T20:49:20.767Z,20.10
2023-09-09T20:51:23.534Z,20.10
2023-09-09T20:53:26.790Z,20.00
2023-09-09T20:55:30.210Z,19.90
2023-09-09T20:57:33.435Z,19.90
2023-09-09T20:59:36.254Z,19.90
2023-09-09T21:01:38.147Z,19.80
2023-09-09T21:03:41.598Z,19.80
2023-09-09T21:05:46.451Z,19.70
2023-09-09T21:07:49.787Z,19.70
2023-09-09T21:09:52.828Z,19.70
2023-09-09T21:11:55.581Z,19.60
2023-09-09T21:13:58.413Z,19.60
2023-09-09T21:16:01.616Z,19.60
2023-09-09T21:18:03.849Z,19.50
2023-09-09T21:20:09.325Z,19.50
2023-09-09T21:22:13.835Z,19.50
2023-09-09T21:24:17.183Z,19.40
2023-09-09T21:26:21.100Z,19.40
2023-09-09T21:28:25.475Z,19.30
2023-09-09T21:30:29.073Z,19.30
2023-09-09T21:32:31.055Z,19.30
2023-09-09T21:34:34.061Z,19.30
2023-09-09T21:36:36.826Z,19.20
2023-09-09T21:38:42.087Z,19.20
2023-09-09T21:40:47.049Z,19.20
2023-09-09T21:42:49.803Z,19.10
2023-09-09T21:44:52.593Z,19.10
2023-09-09T21:46:55.677Z,19.10
2023-09-09T21:48:58.587Z,19.00
2023-09-09T21:51:01.372Z,19.00
2023-09-09T21:53:04.363Z,19.00
2023-09-09T21:55:09.838Z,19.00
2023-09-09T21:57:11.656Z,19.00
2023-09-09T21:59:14.460Z,19.00
2023-09-09T22:01:17.464Z,19.00
2023-09-09T22:03:20.577Z,19.00
2023-09-09T22:05:23.496Z,19.00
2023-09-09T22:07:26.286Z,19.00
2023-09-09T22:09:29.382Z,19.00
2023-09-09T22:11:33.491Z,19.00
2023-09-09T22:13:36.344Z,18.90
2023-09-09T22:15:39.115Z,18.90
2023-09-09T22:17:42.126Z,18.80
2023-09-09T22:19:44.189Z,18.80
2023-09-09T22:21:47.186Z,18.80
2023-09-09T22:23:49.985Z,18.70
2023-09-09T22:25:52.777Z,18.70
2023-09-09T22:27:56.924Z,18.70
2023-09-09T22:29:59.805Z,18.60
2023-09-09T22:32:02.577Z,18.60
2023-09-09T22:34:05.468Z,18.60
2023-09-09T22:36:09.052Z,18.60
2023-09-09T22:38:11.981Z,18.60
2023-09-09T22:40:14.816Z,18.50
2023-09-09T22:42:17.067Z,18.50
2023-09-09T22:44:21.180Z,18.50
2023-09-09T22:46:23.952Z,18.50
2023-09-09T22:48:28.276Z,18.50
2023-09-09T22:50:33.443Z,18.50
2023-09-09T22:52:36.203Z,18.50
2023-09-09T22:54:38.028Z,18.50
2023-09-09T22:56:40.857Z,18.50
2023-09-09T22:58:44.085Z,18.40
2023-09-09T23:00:47.318Z,18.40
2023-09-09T23:02:50.139Z,18.40
2023-09-09T23:04:54.548Z,18.40
2023-09-09T23:06:57.525Z,18.40
2023-09-09T23:09:00.255Z,18.40
2023-09-09T23:11:11.493Z,18.40
2023-09-09T23:13:14.369Z,18.40
2023-09-09T23:15:17.197Z,18.30
2023-09-09T23:17:21.881Z,18.30
2023-09-09T23:19:24.649Z,18.30
2023-09-09T23:21:27.661Z,18.30
2023-09-09T23:23:30.486Z,18.30
2023-09-09T23:25:33.628Z,18.20
2023-09-09T23:27:36.378Z,18.20
2023-09-09T23:29:39.142Z,18.20
2023-09-09T23:31:41.930Z,18.20
2023-09-09T23:33:46.088Z,18.10
2023-09-09T23:35:49.362Z,18.10
2023-09-09T23:37:52.216Z,18.10
2023-09-09T23:39:55.242Z,18.00
2023-09-09T23:41:58.235Z,18.00
2023-09-09T23:44:01.666Z,18.00
2023-09-09T23:46:05.482Z,17.90
2023-09-09T23:48:08.661Z,17.90
2023-09-09T23:50:12.995Z,17.90
2023-09-09T23:52:15.290Z,17.80
2023-09-09T23:54:18.014Z,17.80
2023-09-09T23:56:21.501Z,17.80
2023-09-09T23:58:24.949Z,17.70
